Latest Weather Observations for Gold Coast Seaway

IDQ60801

Issued at 5:35 pm EST Friday 31 October 2014 (issued every 30 minutes, with the page automatically refreshed every 10 minutes)

About weather observations | Map of weather stations | Latest weather observations for QLD | Other Formats
Station Details ID: 040764 Name: GOLD COAST SEAWAY Lat: -27.94 Lon: 153.43 Height: 2.98 m
Data from the previous 72 hours. | See also: Recent months at Gold Coast Seaway
Date/Time
EST
Temp
°C
App
Temp
°C
Dew
Point
Rel
Hum
%
Delta-T
°C
Wind Press
QNH
hPa
Press
MSL
hPa
Rain
since 9 am
mm
Dir
 
Spd
km/h
Gust
km/h
Spd
kts
Gust
kts
31/05:30pm 23.8 21.8 19.9 79 2.5 NNE 30 35 16 19 1013.5 1013.5 0.0
31/05:00pm 24.4 22.1 20.1 77 2.8 NNE 32 35 17 19 1013.3 1013.3 0.0
31/04:30pm 24.8 22.9 20.1 75 3.0 NNE 30 33 16 18 1013.2 1013.2 0.0
31/04:00pm 25.0 22.6 20.0 74 3.2 NNE 32 37 17 20 1013.1 1013.1 0.0
31/03:30pm 25.3 22.8 20.1 73 3.4 NNE 33 39 18 21 1013.0 1013.0 0.0
31/03:00pm 25.7 22.8 20.0 71 3.7 NNE 35 39 19 21 1013.1 1013.1 0.0
31/02:30pm 26.1 23.6 20.2 70 3.8 NNE 33 39 18 21 1013.2 1013.2 0.0
31/02:00pm 26.3 24.0 20.2 69 4.0 NNE 32 37 17 20 1013.5 1013.5 0.0
31/01:30pm 26.5 24.2 20.1 68 4.2 NNE 32 37 17 20 1013.8 1013.8 0.0
31/01:00pm 26.5 24.1 19.9 67 4.3 NE 32 35 17 19 1014.3 1014.3 0.0
31/12:30pm 26.6 25.1 20.2 68 4.2 NE 28 33 15 18 1014.8 1014.8 0.0
31/12:00pm 27.0 25.0 19.9 65 4.6 NNE 30 32 16 17 1015.1 1015.1 0.0
31/11:30am 26.9 25.6 19.8 65 4.6 NE 26 30 14 16 1015.5 1015.5 0.0
31/11:00am 26.4 25.3 19.5 66 4.5 NE 24 28 13 15 1015.7 1015.7 0.0
31/10:30am 26.6 26.4 19.7 66 4.5 NE 20 24 11 13 1016.1 1016.1 0.0
31/10:00am 26.4 26.7 19.5 66 4.5 NE 17 20 9 11 1016.5 1016.5 0.0
31/09:30am 26.1 25.7 18.0 61 5.1 N 17 24 9 13 1016.8 1016.8 0.0
31/09:00am 25.8 25.4 18.0 62 4.9 NNE 17 20 9 11 1016.8 1016.8 0.0
31/08:30am 25.2 25.3 18.4 66 4.3 N 15 19 8 10 1016.8 1016.8 0.0
31/08:00am 24.9 25.8 18.3 66 4.2 N 11 19 6 10 1016.9 1016.9 0.0
31/07:30am 24.5 26.2 19.3 73 3.3 N 9 9 5 5 1017.0 1017.0 0.0
31/07:00am 23.5 25.3 18.8 75 3.0 N 7 11 4 6 1016.7 1016.7 0.0
31/06:30am 22.9 24.0 18.9 78 2.5 N 11 15 6 8 1016.6 1016.6 0.0
31/06:00am 22.5 24.5 20.0 86 1.6 NNW 9 11 5 6 1016.3 1016.3 0.0
31/05:30am 21.9 25.0 20.2 90 1.1 NNW 4 7 2 4 1016.0 1016.0 0.0
31/05:00am 21.5 24.0 19.8 90 1.1 NNW 6 7 3 4 1015.7 1015.7 0.0
31/04:30am 21.4 24.3 19.9 91 1.0 NNW 4 9 2 5 1015.4 1015.4 0.0
31/04:00am 21.3 24.5 20.5 95 0.5 NNW 4 7 2 4 1015.2 1015.2 0.0
31/03:30am 21.1 24.7 20.6 97 0.3 NNW 2 7 1 4 1015.0 1015.0 0.0
31/03:00am 20.0 22.9 18.3 90 1.1 CALM 0 4 0 2 1015.0 1015.0 0.0
31/02:30am 19.6 22.2 17.4 87 1.3 CALM 0 0 0 0 1014.9 1014.9 0.0
31/02:00am 20.8 24.1 19.1 90 1.1 CALM 0 0 0 0 1015.0 1015.0 0.0
31/01:30am 21.1 23.0 19.7 92 0.9 NNW 9 11 5 6 1015.2 1015.2 0.0
31/01:00am 20.7 22.5 18.8 89 1.2 NNW 7 9 4 5 1015.3 1015.3 0.0
31/12:30am 21.0 22.9 18.6 86 1.5 NNW 6 7 3 4 1015.4 1015.4 0.0
31/12:00am 21.6 23.2 19.2 86 1.5 N 9 11 5 6 1015.8 1015.8 0.0
 
Date/Time
EST
Temp
°C
App
Temp
°C
Dew
Point
Rel
Hum
%
Delta-T
°C
Wind Press
QNH
hPa
Press
MSL
hPa
Rain
since 9 am
mm
Dir
 
Spd
km/h
Gust
km/h
Spd
kts
Gust
kts
30/11:30pm 21.9 23.5 19.1 84 1.8 N 9 13 5 7 1016.3 1016.3 0.0
30/11:00pm 22.1 24.3 19.3 84 1.8 NNW 6 9 3 5 1016.6 1016.6 0.0
30/10:30pm 22.2 23.6 19.6 85 1.7 N 11 13 6 7 1016.7 1016.7 0.0
30/10:00pm 22.4 24.3 19.8 85 1.7 N 9 15 5 8 1016.4 1016.4 0.0
30/09:30pm 22.5 23.7 19.9 85 1.7 N 13 15 7 8 1016.3 1016.3 0.0
30/09:00pm 22.4 23.6 19.9 86 1.6 N 13 15 7 8 1016.2 1016.2 0.0
30/08:30pm 22.3 23.5 19.8 86 1.6 NNE 13 17 7 9 1016.0 1016.0 0.0
30/08:00pm 22.2 23.3 19.6 85 1.7 NNE 13 15 7 8 1015.7 1015.7 0.0
30/07:30pm 22.2 22.9 19.6 85 1.7 NNE 15 17 8 9 1015.4 1015.4 0.0
30/07:00pm 22.2 23.2 19.4 84 1.8 NE 13 17 7 9 1015.3 1015.3 0.0
30/06:30pm 22.5 23.3 19.9 85 1.7 NE 15 19 8 10 1014.9 1014.9 0.0
30/06:00pm 22.5 22.8 19.5 83 1.9 NE 17 20 9 11 1014.8 1014.8 0.0
30/05:30pm 22.9 23.1 19.3 80 2.3 NE 17 19 9 10 1014.3 1014.3 0.0
30/05:00pm 23.6 24.0 19.1 76 2.9 NE 15 19 8 10 1014.3 1014.3 0.0
30/04:30pm 24.2 24.5 18.8 72 3.4 NE 15 17 8 9 1014.1 1014.1 0.0
30/04:00pm 24.4 24.3 18.8 71 3.6 ENE 17 20 9 11 1014.0 1014.0 0.0
30/03:30pm 24.7 24.9 18.6 69 3.9 ENE 15 19 8 10 1014.0 1014.0 0.0
30/03:00pm 24.9 24.2 18.3 66 4.2 ENE 19 22 10 12 1014.0 1014.0 0.0
30/02:30pm 25.4 24.7 18.6 66 4.3 ENE 20 26 11 14 1014.1 1014.1 0.0
30/02:00pm 25.5 24.0 17.7 62 4.9 ENE 22 26 12 14 1014.4 1014.4 0.0
30/01:30pm 25.5 24.4 17.7 62 4.9 ENE 20 24 11 13 1014.7 1014.7 0.0
30/01:00pm 26.2 25.5 17.3 58 5.6 E 17 19 9 10 1015.3 1015.3 0.0
30/12:30pm 26.3 25.6 17.4 58 5.6 E 17 19 9 10 1015.8 1015.8 0.0
30/12:00pm 26.5 26.8 17.8 58 5.5 ESE 13 17 7 9 1016.2 1016.2 0.0
30/11:30am 26.4 26.3 16.9 56 5.9 ESE 13 15 7 8 1016.4 1016.4 0.0
30/11:00am 26.7 27.1 17.2 56 5.9 SE 11 13 6 7 1016.9 1016.9 0.0
30/10:30am 26.3 26.4 16.5 54 6.0 SE 11 13 6 7 1017.2 1017.2 0.0
30/10:00am 25.1 25.0 16.0 57 5.5 SSE 11 13 6 7 1017.4 1017.4 0.0
30/09:30am 25.8 25.7 16.9 58 5.5 SSE 13 15 7 8 1017.7 1017.7 0.0
30/09:00am 25.2 25.0 16.6 59 5.3 SSE 13 15 7 8 1018.1 1018.1 0.0
30/08:30am 24.4 24.0 16.1 60 5.1 SSE 13 15 7 8 1018.3 1018.3 0.0
30/08:00am 24.5 24.2 16.5 61 4.9 S 13 15 7 8 1018.4 1018.4 0.0
30/07:30am 23.7 23.5 16.7 65 4.3 S 13 15 7 8 1018.3 1018.3 0.0
30/07:00am 22.4 22.6 16.7 70 3.5 S 11 15 6 8 1017.9 1017.9 0.0
30/06:30am 21.0 21.4 16.4 75 2.8 SSW 9 13 5 7 1017.6 1017.6 0.0
30/06:00am 19.6 19.7 16.6 83 1.8 SSW 11 15 6 8 1017.1 1017.1 0.0
30/05:30am 18.2 18.3 16.5 90 1.0 SSW 11 13 6 7 1016.8 1016.8 0.0
30/05:00am 17.9 18.7 16.4 91 0.9 SW 7 11 4 6 1016.5 1016.5 0.0
30/04:30am 17.9 18.2 15.9 88 1.2 SSW 9 11 5 6 1016.4 1016.4 0.0
30/04:00am 18.2 18.1 16.0 87 1.3 SSW 11 15 6 8 1016.2 1016.2 0.0
30/03:30am 18.5 18.5 16.3 87 1.3 SSW 11 13 6 7 1016.2 1016.2 0.0
30/03:00am 18.7 18.8 16.5 87 1.3 SSW 11 15 6 8 1016.2 1016.2 0.0
30/02:30am 18.9 18.7 16.7 87 1.3 SSW 13 17 7 9 1016.2 1016.2 0.0
30/02:00am 18.7 18.4 16.5 87 1.3 SSW 13 15 7 8 1016.2 1016.2 0.0
30/01:30am 19.0 18.7 16.4 85 1.6 SSW 13 17 7 9 1016.4 1016.4 0.0
30/01:00am 19.1 18.9 16.7 86 1.4 SSW 13 15 7 8 1016.6 1016.6 0.0
30/12:30am 19.1 19.2 16.5 85 1.6 SSW 11 15 6 8 1016.7 1016.7 0.0
30/12:00am 19.4 18.8 16.6 84 1.7 S 15 17 8 9 1017.1 1017.1 0.0
 
Date/Time
EST
Temp
°C
App
Temp
°C
Dew
Point
Rel
Hum
%
Delta-T
°C
Wind Press
QNH
hPa
Press
MSL
hPa
Rain
since 9 am
mm
Dir
 
Spd
km/h
Gust
km/h
Spd
kts
Gust
kts
29/11:30pm 19.6 18.3 16.8 84 1.7 S 19 22 10 12 1017.3 1017.3 0.0
29/11:00pm 19.8 18.9 16.8 83 1.8 S 17 20 9 11 1017.5 1017.5 0.0
29/10:30pm 20.1 19.2 16.9 82 1.9 S 17 19 9 10 1017.6 1017.6 0.0
29/10:00pm 20.7 20.2 17.9 84 1.7 S 17 19 9 10 1017.6 1017.6 0.0
29/09:30pm 21.1 21.0 18.7 86 1.5 SSE 17 19 9 10 1017.5 1017.5 0.0
29/09:00pm 21.2 20.7 18.6 85 1.6 SSE 19 22 10 12 1017.5 1017.5 0.0
29/08:30pm 21.3 20.5 18.5 84 1.8 SSE 20 24 11 13 1017.3 1017.3 0.0
29/08:00pm 21.5 20.4 18.7 84 1.8 SSE 22 26 12 14 1017.0 1017.0 0.0
29/07:30pm 21.7 19.5 18.7 83 1.9 SSE 28 33 15 18 1016.7 1016.7 0.0
29/07:00pm 21.8 19.6 18.6 82 2.0 SSE 28 32 15 17 1016.3 1016.3 0.0
29/06:30pm 21.9 19.6 18.5 81 2.1 SSE 28 33 15 18 1016.0 1016.0 0.0
29/06:00pm 22.2 19.5 18.4 79 2.4 SSE 30 33 16 18 1015.6 1015.6 0.0
29/05:30pm 22.8 19.3 17.9 74 3.1 SSE 33 39 18 21 1015.2 1015.2 0.0
29/05:00pm 23.5 19.2 17.7 70 3.6 SSE 37 44 20 24 1014.8 1014.8 0.0
29/04:30pm 24.1 20.3 18.1 69 3.8 SSE 35 44 19 24 1014.4 1014.4 0.0
29/04:00pm 24.5 20.7 18.0 67 4.1 SSE 35 41 19 22 1014.1 1014.1 0.0
29/03:30pm 24.8 20.5 17.8 65 4.4 SSE 37 44 20 24 1013.9 1013.9 0.0
29/03:00pm 25.0 20.3 17.7 64 4.6 SSE 39 50 21 27 1013.8 1013.8 0.0
29/02:30pm 25.3 19.0 16.2 57 5.6 SSE 44 54 24 29 1013.7 1013.7 0.0
29/02:00pm 25.8 19.2 16.4 56 5.8 SE 46 56 25 30 1013.8 1013.8 0.0
29/01:30pm 25.9 19.7 17.3 59 5.4 SE 46 56 25 30 1014.0 1014.0 0.0
29/01:00pm 26.1 20.6 18.2 61 5.0 SE 44 54 24 29 1014.1 1014.1 0.0
29/12:30pm 26.0 20.3 17.6 60 5.3 SE 44 56 24 30 1014.4 1014.4 0.0
29/12:00pm 26.3 21.0 18.2 61 5.1 SE 43 54 23 29 1014.6 1014.6 0.0
29/11:30am 25.7 21.0 18.6 65 4.5 SE 41 50 22 27 1014.7 1014.7 0.0
29/11:00am 26.1 21.9 19.0 65 4.5 SE 39 46 21 25 1014.9 1014.9 0.0
29/10:30am 25.9 21.8 18.3 63 4.8 SE 37 44 20 24 1015.1 1015.1 0.0
29/10:00am 26.8 24.0 18.1 59 5.5 SSE 30 39 16 21 1015.2 1015.2 0.0
29/09:30am 27.0 26.4 18.8 60 5.3 SSE 20 26 11 14 1015.3 1015.3 0.0
29/09:00am 26.2 24.9 18.1 61 5.1 SSE 22 26 12 14 1015.0 1015.0 0.0
29/08:30am 25.6 24.9 18.3 64 4.6 SSE 19 22 10 12 1014.9 1014.9 0.0
29/08:00am 24.8 24.4 18.0 66 4.3 S 17 19 9 10 1014.7 1014.7 0.0
29/07:30am 23.6 22.3 17.3 67 3.9 S 20 28 11 15 1014.5 1014.5 0.0
29/07:00am 22.5 20.2 17.6 74 3.0 S 26 32 14 17 1014.1 1014.1 0.0
29/06:30am 21.3 18.9 18.3 83 1.9 S 28 33 15 18 1013.7 1013.7 0.0
29/06:00am 19.1 19.1 17.2 89 1.2 SSW 13 17 7 9 1013.5 1013.5 0.0
29/05:30am 18.0 18.6 16.9 93 0.7 SW 9 11 5 6 1013.2 1013.2 0.0
29/05:00am 18.0 18.7 17.0 94 0.6 SW 9 11 5 6 1012.8 1012.8 0.0
29/04:30am 18.1 18.7 16.8 92 0.8 SW 9 13 5 7 1012.5 1012.5 0.0
29/04:00am 18.4 19.1 17.1 92 0.8 WSW 9 11 5 6 1012.2 1012.2 0.0
29/03:30am 18.1 19.3 17.3 95 0.5 SW 7 11 4 6 1012.0 1012.0 0.0
29/03:00am 17.9 17.9 17.3 96 0.4 SSW 13 15 7 8 1011.8 1011.8 0.0
29/02:30am 17.4 17.0 16.3 93 0.7 S 13 17 7 9 1011.5 1011.5 0.0
29/02:00am 17.3 17.1 15.8 91 0.9 S 11 13 6 7 1011.4 1011.4 0.0
29/01:30am 17.4 17.2 15.7 90 1.0 S 11 13 6 7 1011.3 1011.3 0.0
29/01:00am 17.6 17.4 15.8 89 1.1 SSW 11 13 6 7 1011.4 1011.4 0.0
29/12:30am 17.9 17.8 16.1 89 1.1 SSW 11 15 6 8 1011.4 1011.4 0.0
29/12:00am 18.7 19.8 17.2 91 0.9 S 7 11 4 6 1011.3 1011.3 0.0
 
Date/Time
EST
Temp
°C
App
Temp
°C
Dew
Point
Rel
Hum
%
Delta-T
°C
Wind Press
QNH
hPa
Press
MSL
hPa
Rain
since 9 am
mm
Dir
 
Spd
km/h
Gust
km/h
Spd
kts
Gust
kts
28/11:30pm 18.8 21.2 16.9 89 1.1 CALM 0 7 0 4 1011.6 1011.6 0.0
28/11:00pm 19.2 21.0 17.5 90 1.0 S 4 7 2 4 1011.8 1011.8 0.0
28/10:30pm 19.2 21.6 17.0 87 1.3 CALM 0 0 0 0 1011.8 1011.8 0.0
28/10:00pm 19.1 21.2 16.3 84 1.7 CALM 0 0 0 0 1011.9 1011.9 0.0
28/09:30pm 19.5 21.9 16.9 85 1.6 CALM 0 0 0 0 1011.8 1011.8 0.0
28/09:00pm 19.7 22.0 16.7 83 1.8 CALM 0 0 0 0 1011.9 1011.9 0.0
28/08:30pm 20.0 22.2 16.6 81 2.1 CALM 0 0 0 0 1011.9 1011.9 0.0
28/08:00pm 20.4 21.5 17.0 81 2.1 S 7 9 4 5 1011.7 1011.7 0.0
28/07:30pm 20.8 22.1 17.0 79 2.3 S 6 7 3 4 1011.4 1011.4 0.0
28/07:00pm 21.2 22.3 17.2 78 2.5 S 7 9 4 5 1011.1 1011.1 0.0
28/06:30pm 21.7 22.6 17.5 77 2.6 SSW 9 11 5 6 1010.8 1010.8 0.0
28/06:00pm 22.5 23.4 18.3 77 2.6 S 11 13 6 7 1010.4 1010.4 0.0

Other Formats:

Comma delimited format used in spreadsheet applications
http://www.bom.gov.au/fwo/IDQ60801/IDQ60801.94580.axf

JavaScript Object Notation format (JSON) in row-major order
http://www.bom.gov.au/fwo/IDQ60801/IDQ60801.94580.json